首页
METAR-TAF:

METAR-TAF

机场 :

諾里奇, 英格兰

纬度: 52-38N, 经度: 001-18E, 海拔: 14米

当前天气观测

该预报发布于42分钟前的21:20 UTC
风速12节,风向北转东北
温度 5°C
湿度 60%
气压 1039 hPa
能见度10公里或以上

METAR: EGSH 292120Z AUTO 03012KT 9999 FEW037/// BKN044/// 05/M02 Q1039

时间: 23:02 (22:02 UTC)

预报

该预报发布于2小时和9分钟前的19:53 UTC
预报有效从29日的 21点(UTC)到 29日的 24点(UTC)
风速8节,风向北转东北
能见度10公里或以上
散云层高于4000英尺
短暂存在
从 29日的 21点(UTC)到 29日的 24点(UTC)
能見度: 7000
阵雨
几率 30% :
短暂存在
从 29日的 21点(UTC)到 29日的 24点(UTC)
多云层高于1000英尺

TAF: EGSH 291953Z 2921/2924 02008KT 9999 SCT040 TEMPO 2921/2924 7000 SHRA PROB30 TEMPO 2921/2924 BKN010

超过4000个机场的气象观测和天气预报(METAR&TAF报告)。

可查询的气象台以黄色和红色小点在地图上表示。

将鼠标移到小点上方,可查看气象台名称。

然后点击查看天气观测和预报。

如需切换地图:点击带黑十字的绿色按钮放大地图;点击带横线的绿色按钮缩小地图;或者点击绿色箭头查看邻近地区的地图。


METAR-TAF: